createdAt,value
2019-03-26T00:03:36.846Z,5.83
2019-03-26T00:07:44.450Z,6.87
2019-03-26T00:11:51.973Z,5.00
2019-03-26T00:15:59.563Z,5.23
2019-03-26T00:20:07.797Z,4.80
2019-03-26T00:24:15.570Z,5.07
2019-03-26T00:28:23.118Z,4.47
2019-03-26T00:32:30.664Z,6.23
2019-03-26T00:36:38.193Z,7.23
2019-03-26T00:40:45.842Z,6.80
2019-03-26T00:44:53.364Z,4.80
2019-03-26T00:49:00.880Z,5.93
2019-03-26T00:53:08.385Z,6.83
2019-03-26T00:57:15.890Z,7.87
2019-03-26T01:01:24.527Z,6.17
2019-03-26T01:05:32.228Z,5.33
2019-03-26T01:09:39.876Z,6.43
2019-03-26T01:13:47.508Z,5.03
2019-03-26T01:17:55.056Z,6.63
2019-03-26T01:22:02.709Z,6.53
2019-03-26T01:26:11.615Z,7.23
2019-03-26T01:30:19.104Z,6.43
2019-03-26T01:34:27.002Z,5.97
2019-03-26T01:38:34.634Z,6.20
2019-03-26T01:42:42.189Z,7.90
2019-03-26T01:46:49.742Z,5.27
2019-03-26T01:50:57.296Z,7.33
2019-03-26T01:55:05.181Z,7.70
2019-03-26T01:59:12.944Z,4.70
2019-03-26T02:03:21.606Z,6.63
2019-03-26T02:07:29.086Z,5.47
2019-03-26T02:11:36.695Z,8.23
2019-03-26T02:15:45.309Z,7.27
2019-03-26T02:19:52.991Z,10.73
2019-03-26T02:24:00.638Z,6.47
2019-03-26T02:28:08.158Z,6.20
2019-03-26T02:32:15.657Z,5.57
2019-03-26T02:36:23.244Z,6.40
2019-03-26T02:40:30.846Z,7.20
2019-03-26T02:44:38.447Z,7.07
2019-03-26T02:48:46.020Z,8.27
2019-03-26T02:52:53.573Z,8.83
2019-03-26T02:57:01.140Z,10.03
2019-03-26T03:01:08.781Z,6.43
2019-03-26T03:05:33.791Z,10.53
2019-03-26T03:09:25.835Z,7.87
2019-03-26T03:13:33.459Z,6.17
2019-03-26T03:17:41.291Z,6.67
2019-03-26T03:21:48.841Z,6.87
2019-03-26T03:25:56.376Z,5.90
2019-03-26T03:30:04.330Z,5.77
2019-03-26T03:34:11.889Z,7.97
2019-03-26T03:38:19.454Z,8.33
2019-03-26T03:42:27.338Z,6.93
2019-03-26T03:46:35.446Z,8.50
2019-03-26T03:50:44.909Z,17.27
2019-03-26T03:54:52.775Z,7.90
2019-03-26T03:59:02.577Z,8.37
2019-03-26T04:03:11.395Z,7.70
2019-03-26T04:07:19.068Z,7.33
2019-03-26T04:11:26.654Z,8.33
2019-03-26T04:15:35.140Z,5.70
2019-03-26T04:19:43.026Z,9.97
2019-03-26T04:23:50.523Z,8.10
2019-03-26T04:27:58.313Z,7.73
2019-03-26T04:32:06.086Z,10.07
2019-03-26T04:36:25.495Z,6.60
2019-03-26T04:40:22.907Z,11.20
2019-03-26T04:44:30.604Z,9.60
2019-03-26T04:48:38.226Z,10.63
2019-03-26T04:52:45.873Z,13.07
2019-03-26T04:56:53.437Z,8.67
2019-03-26T05:01:01.246Z,11.23
2019-03-26T05:05:12.254Z,6.00
2019-03-26T05:09:18.583Z,7.80
2019-03-26T05:13:26.116Z,8.00
2019-03-26T05:17:33.682Z,7.60
2019-03-26T05:21:41.265Z,9.37
2019-03-26T05:25:48.750Z,10.07
2019-03-26T05:29:56.381Z,10.93
2019-03-26T05:34:03.938Z,7.63
2019-03-26T05:38:12.449Z,12.53
2019-03-26T05:42:20.034Z,11.13
2019-03-26T05:46:27.521Z,9.00
2019-03-26T05:50:35.045Z,9.20
2019-03-26T05:54:42.517Z,11.80
2019-03-26T05:58:50.036Z,9.60
2019-03-26T06:02:57.560Z,11.23
2019-03-26T06:07:05.671Z,10.00
2019-03-26T06:11:13.218Z,10.73
2019-03-26T06:15:20.981Z,8.90
2019-03-26T06:19:28.567Z,14.57
2019-03-26T06:23:36.066Z,9.20
2019-03-26T06:27:43.797Z,9.47
2019-03-26T06:31:51.368Z,9.57
2019-03-26T06:35:58.873Z,12.43
2019-03-26T06:40:08.102Z,9.37
2019-03-26T06:44:15.614Z,12.13
2019-03-26T06:48:23.201Z,11.27
2019-03-26T06:52:30.805Z,13.33
2019-03-26T06:56:38.337Z,10.53
2019-03-26T07:00:45.836Z,8.43
2019-03-26T07:04:53.492Z,10.57
2019-03-26T07:09:01.117Z,8.40
2019-03-26T07:13:09.861Z,13.43
2019-03-26T07:17:17.360Z,12.93
2019-03-26T07:21:25.162Z,9.50
2019-03-26T07:25:32.821Z,9.90
2019-03-26T07:29:40.552Z,9.33
2019-03-26T07:33:48.284Z,12.97
2019-03-26T07:37:56.050Z,11.37
2019-03-26T07:42:04.093Z,10.80
2019-03-26T07:46:11.625Z,14.47
2019-03-26T07:50:19.397Z,11.00
2019-03-26T07:54:26.983Z,11.97
2019-03-26T07:58:34.616Z,11.57
2019-03-26T08:02:44.585Z,14.73
2019-03-26T08:06:53.847Z,11.60
2019-03-26T08:11:01.732Z,9.33
2019-03-26T08:15:10.139Z,11.93
2019-03-26T08:19:18.381Z,8.87
2019-03-26T08:23:27.447Z,8.57
2019-03-26T08:27:36.229Z,8.60
2019-03-26T08:31:44.056Z,10.97
2019-03-26T08:35:52.080Z,8.03
2019-03-26T08:40:00.705Z,10.63
2019-03-26T08:44:08.723Z,10.27
2019-03-26T08:48:16.945Z,5.30
2019-03-26T08:52:25.091Z,10.60
2019-03-26T08:56:33.053Z,8.00
2019-03-26T09:00:40.915Z,11.87
2019-03-26T09:04:48.779Z,12.77
2019-03-26T09:08:56.697Z,11.60
2019-03-26T09:13:04.299Z,10.73
2019-03-26T09:17:11.968Z,12.13
2019-03-26T09:21:19.974Z,12.87
2019-03-26T09:25:27.976Z,15.23
2019-03-26T09:29:56.522Z,13.63
2019-03-26T09:34:04.258Z,11.73
2019-03-26T09:38:14.082Z,11.20
2019-03-26T09:42:21.883Z,8.80
2019-03-26T09:46:29.700Z,12.37
2019-03-26T09:50:41.784Z,11.77
2019-03-26T09:54:49.966Z,10.90
2019-03-26T09:58:57.578Z,12.90
2019-03-26T10:03:05.542Z,12.43
2019-03-26T10:07:21.349Z,10.63
2019-03-26T10:11:22.873Z,10.77
2019-03-26T10:15:30.752Z,12.30
2019-03-26T10:19:38.326Z,10.00
2019-03-26T10:23:46.957Z,9.80
2019-03-26T10:27:54.563Z,9.97
2019-03-26T10:32:02.119Z,14.23
2019-03-26T10:36:09.747Z,11.90
2019-03-26T10:40:32.626Z,13.37
2019-03-26T10:44:40.671Z,11.00
2019-03-26T10:48:48.225Z,9.83
2019-03-26T10:52:55.944Z,10.90
2019-03-26T10:57:03.989Z,10.87
2019-03-26T11:01:12.091Z,11.37
2019-03-26T11:05:20.298Z,11.00
2019-03-26T11:09:38.492Z,14.60
2019-03-26T11:13:53.166Z,13.80
2019-03-26T11:18:10.912Z,15.07
2019-03-26T11:22:23.689Z,15.33
2019-03-26T11:26:36.789Z,13.93
2019-03-26T11:30:44.762Z,12.37
2019-03-26T11:34:57.515Z,11.73
2019-03-26T11:39:15.997Z,13.37
2019-03-26T11:43:30.431Z,10.20
2019-03-26T11:47:40.645Z,12.30
2019-03-26T11:51:49.363Z,13.73
2019-03-26T11:56:01.424Z,12.27
2019-03-26T12:00:17.736Z,15.13
2019-03-26T12:04:34.896Z,11.87
2019-03-26T12:08:48.172Z,14.50
2019-03-26T12:12:57.654Z,12.00
2019-03-26T12:17:05.200Z,8.27
2019-03-26T12:21:12.734Z,10.90
2019-03-26T12:25:20.324Z,13.03
2019-03-26T12:29:29.751Z,11.87
2019-03-26T12:33:38.362Z,10.17
2019-03-26T12:37:45.902Z,9.20
2019-03-26T12:41:53.742Z,9.23
2019-03-26T12:46:02.050Z,11.70
2019-03-26T12:50:10.446Z,13.03
2019-03-26T12:54:18.363Z,11.80
2019-03-26T12:58:31.581Z,13.57
2019-03-26T13:02:36.071Z,12.73
2019-03-26T13:06:43.788Z,15.20
2019-03-26T13:10:53.788Z,14.43
2019-03-26T13:15:00.564Z,11.63
2019-03-26T13:19:08.567Z,13.03
2019-03-26T13:23:16.177Z,11.50
2019-03-26T13:27:23.789Z,13.20
2019-03-26T13:31:31.536Z,8.87
2019-03-26T13:35:39.232Z,9.83
2019-03-26T13:39:47.025Z,7.47
2019-03-26T13:43:54.653Z,11.47
2019-03-26T13:48:02.323Z,8.83
2019-03-26T13:52:09.861Z,8.07
2019-03-26T13:56:17.532Z,8.03
2019-03-26T14:00:40.349Z,7.80
2019-03-26T14:04:48.025Z,7.67
2019-03-26T14:08:55.848Z,9.07
2019-03-26T14:13:03.841Z,6.97
2019-03-26T14:17:11.545Z,8.10
2019-03-26T14:21:19.453Z,6.47
2019-03-26T14:25:27.518Z,9.00
2019-03-26T14:29:35.341Z,5.10
2019-03-26T14:33:43.131Z,6.63
2019-03-26T14:37:51.768Z,6.53
2019-03-26T14:41:59.829Z,6.10
2019-03-26T14:46:07.814Z,5.67
2019-03-26T14:50:16.188Z,8.47
2019-03-26T14:54:23.912Z,9.50
2019-03-26T14:58:31.617Z,6.00
2019-03-26T15:02:39.142Z,8.63
2019-03-26T15:06:46.715Z,4.20
2019-03-26T15:11:07.286Z,7.27
2019-03-26T15:15:05.679Z,4.13
2019-03-26T15:19:13.296Z,5.03
2019-03-26T15:23:20.932Z,6.17
2019-03-26T15:27:29.802Z,8.67
2019-03-26T15:31:37.486Z,7.30
2019-03-26T15:35:45.089Z,8.23
2019-03-26T15:39:52.651Z,9.43
2019-03-26T15:44:00.282Z,5.63
2019-03-26T15:48:07.870Z,8.27
2019-03-26T15:52:15.419Z,6.00
2019-03-26T15:56:23.025Z,7.27
2019-03-26T16:00:32.495Z,9.53
2019-03-26T16:04:40.333Z,6.60
2019-03-26T16:08:48.048Z,10.17
2019-03-26T16:12:55.614Z,7.40
2019-03-26T16:17:03.120Z,10.90
2019-03-26T16:21:11.335Z,12.00
2019-03-26T16:25:18.919Z,6.90
2019-03-26T16:29:26.467Z,13.00
2019-03-26T16:33:34.025Z,13.30
2019-03-26T16:37:42.700Z,9.90
2019-03-26T16:41:51.357Z,12.63
2019-03-26T16:45:59.097Z,10.47
2019-03-26T16:50:07.695Z,10.47
2019-03-26T16:54:15.364Z,20.33
2019-03-26T16:58:23.193Z,10.23
2019-03-26T17:02:31.013Z,10.97
2019-03-26T17:06:38.592Z,10.43
2019-03-26T17:10:48.604Z,10.50
2019-03-26T17:14:55.626Z,7.43
2019-03-26T17:19:03.339Z,9.20
2019-03-26T17:23:11.112Z,10.37
2019-03-26T17:27:18.756Z,8.93
2019-03-26T17:31:26.439Z,9.23
2019-03-26T17:35:34.253Z,12.00
2019-03-26T17:39:41.987Z,9.43
2019-03-26T17:43:50.519Z,13.27
2019-03-26T17:47:58.238Z,7.03
2019-03-26T17:52:06.082Z,6.50
2019-03-26T17:56:13.829Z,7.87
2019-03-26T18:00:42.665Z,9.00
2019-03-26T18:04:51.342Z,10.63
2019-03-26T18:08:59.121Z,18.93
2019-03-26T18:13:06.771Z,11.70
2019-03-26T18:17:14.378Z,7.10
2019-03-26T18:21:22.146Z,9.13
2019-03-26T18:25:29.800Z,11.73
2019-03-26T18:29:37.445Z,10.53
2019-03-26T18:33:45.358Z,10.83
2019-03-26T18:37:54.274Z,8.37
2019-03-26T18:42:02.025Z,12.23
2019-03-26T18:46:24.983Z,11.80
2019-03-26T18:50:34.434Z,12.67
2019-03-26T18:54:43.303Z,16.53
2019-03-26T18:58:51.656Z,10.43
2019-03-26T19:02:59.152Z,11.50
2019-03-26T19:07:06.815Z,8.67
2019-03-26T19:11:16.065Z,11.60
2019-03-26T19:15:23.967Z,14.00
2019-03-26T19:19:31.756Z,11.63
2019-03-26T19:23:39.437Z,12.57
2019-03-26T19:27:47.034Z,8.87
2019-03-26T19:31:55.244Z,10.07
2019-03-26T19:36:02.892Z,12.47
2019-03-26T19:40:10.514Z,13.87
2019-03-26T19:44:18.223Z,14.13
2019-03-26T19:48:25.815Z,13.70
2019-03-26T19:52:33.363Z,12.67
2019-03-26T19:56:40.964Z,15.63
2019-03-26T20:00:48.551Z,15.80
2019-03-26T20:04:56.169Z,12.83
2019-03-26T20:09:04.491Z,15.20
2019-03-26T20:13:23.650Z,15.67
2019-03-26T20:17:21.753Z,16.83
2019-03-26T20:21:42.539Z,16.87
2019-03-26T20:25:50.142Z,21.43
2019-03-26T20:29:57.734Z,19.00
2019-03-26T20:34:05.286Z,15.60
2019-03-26T20:38:13.812Z,19.43
2019-03-26T20:42:21.340Z,20.17
2019-03-26T20:46:29.131Z,21.83
2019-03-26T20:50:36.777Z,24.30
2019-03-26T20:54:44.682Z,21.67
2019-03-26T20:58:52.745Z,40.20
2019-03-26T21:03:00.322Z,16.77
2019-03-26T21:07:08.013Z,19.57
2019-03-26T21:11:16.576Z,21.17
2019-03-26T21:15:24.168Z,25.47
2019-03-26T21:19:31.746Z,30.10
2019-03-26T21:23:39.383Z,26.37
2019-03-26T21:27:46.959Z,19.70
2019-03-26T21:31:54.530Z,21.80
2019-03-26T21:36:02.084Z,18.40
2019-03-26T21:40:11.444Z,23.70
2019-03-26T21:44:19.060Z,25.03
2019-03-26T21:48:26.608Z,24.23
2019-03-26T21:52:34.197Z,20.97
2019-03-26T21:56:41.868Z,26.57
2019-03-26T22:00:49.378Z,25.47
2019-03-26T22:04:59.786Z,26.10
2019-03-26T22:09:08.600Z,29.90
2019-03-26T22:13:16.738Z,28.87
2019-03-26T22:17:24.527Z,27.40
2019-03-26T22:21:32.047Z,26.93
2019-03-26T22:25:39.601Z,27.60
2019-03-26T22:29:47.133Z,28.00
2019-03-26T22:33:55.171Z,31.73
2019-03-26T22:38:02.754Z,27.73
2019-03-26T22:42:10.327Z,24.20
2019-03-26T22:46:17.893Z,26.37
2019-03-26T22:50:25.538Z,23.10
2019-03-26T22:54:33.090Z,26.73
2019-03-26T22:58:40.748Z,25.40
2019-03-26T23:02:48.407Z,29.10
2019-03-26T23:06:55.902Z,25.90
2019-03-26T23:11:03.437Z,27.47
2019-03-26T23:15:24.341Z,26.73
2019-03-26T23:19:31.927Z,26.27
2019-03-26T23:23:39.450Z,21.77
2019-03-26T23:27:46.957Z,23.03
2019-03-26T23:31:54.554Z,24.60
2019-03-26T23:36:02.150Z,27.40
2019-03-26T23:40:11.872Z,26.57
2019-03-26T23:44:25.667Z,26.63
2019-03-26T23:48:28.698Z,23.57
2019-03-26T23:52:39.026Z,24.73
2019-03-26T23:56:46.613Z,29.63
